San Francisco, California
Traffic Map
Current Weather Conditions
San Francisco, California
Broken Clouds
Broken Clouds
17°
Feels Like: 17°
Wind Chill: 17° Ceiling: 1900
Heat Index: 17° Visibility: 10mi
Dew Point: 15° Wind: 13mph
Humidity: 88% Direction: 270° (W)
Pressure: 30.03in Gusts: 0mph
Raw Report DataKSFO 301337Z 27011KT 10SM FEW010 BKN019 BKN026 17/15 A3003 RMK AO2 $
Traffic Incident Summary
Active as of:
Severity:
Category:
InformationThere was an issue retrieving the traffic information for this location. Please try a different location or try again shortly.
Advertisements
Track Severe Weather on mobile